Time;durP1;ratioP1;P1;durP2;ratioP2;P2;SDS_P1;SDS_P2;PMS_P1;PMS_P2;Temp;Humidity;BMP_temperature;BMP_pressure;BME280_temperature;BME280_humidity;BME280_pressure;Samples;Min_cycle;Max_cycle;Signal;HPM_P1;HPM_P2
2023/03/18 00:01:06;;;;;;;0.80;0.80;;;5.30;53.30;;;5.00;41.13;94645.84;5096847;28;20191;-19
2023/03/18 00:03:36;;;;;;;0.60;0.60;;;5.20;53.20;;;4.95;41.17;94642.91;5096549;28;20190;-19
2023/03/18 00:06:10;;;;;;;0.80;0.80;;;5.20;53.30;;;4.94;40.97;94649.91;5096853;28;20175;-19
2023/03/18 00:08:39;;;;;;;0.80;0.80;;;5.20;53.50;;;4.89;41.57;94646.16;5096282;28;20289;-19
2023/03/18 00:11:09;;;;;;;0.70;0.70;;;5.10;53.80;;;4.89;41.08;94644.38;5096393;28;20244;-19
2023/03/18 00:13:36;;;;;;;0.60;0.60;;;5.10;53.70;;;4.89;40.77;94644.38;5096682;28;20194;-20
2023/03/18 00:16:05;;;;;;;0.80;0.80;;;5.10;53.50;;;4.85;41.19;94643.09;5096332;28;20194;-19
2023/03/18 00:18:33;;;;;;;0.80;0.80;;;5.10;53.60;;;4.83;40.80;94645.03;5096315;28;20199;-19
2023/03/18 00:21:00;;;;;;;0.80;0.80;;;5.00;53.50;;;4.83;40.93;94644.22;5096251;28;20195;-19
2023/03/18 00:23:27;;;;;;;0.70;0.70;;;5.00;53.50;;;4.79;41.39;94648.94;5112055;28;20528;-20
2023/03/18 00:25:57;;;;;;;0.80;0.80;;;5.00;53.70;;;4.76;41.54;94647.47;5096327;28;20262;-19
2023/03/18 00:28:24;;;;;;;0.70;0.70;;;5.00;53.80;;;4.73;42.04;94647.78;5096035;28;20263;-19
2023/03/18 00:30:53;;;;;;;0.70;0.70;;;4.90;54.10;;;4.73;42.09;94652.97;5096602;28;20187;-20
2023/03/18 00:33:20;;;;;;;0.80;0.80;;;4.90;54.20;;;4.74;41.81;94649.41;5095915;28;20195;-19
2023/03/18 00:35:47;;;;;;;0.70;0.70;;;4.90;54.10;;;4.72;41.55;94655.75;5095991;28;20187;-20
2023/03/18 00:38:19;;;;;;;0.70;0.70;;;4.90;54.10;;;4.71;41.62;94657.56;5111969;28;20203;-19
2023/03/18 00:41:10;;;;;;;0.80;0.80;;;4.90;54.30;;;4.67;42.12;94658.81;5111970;28;20294;-18
2023/03/18 00:43:45;;;;;;;0.70;0.70;;;4.90;54.70;;;4.67;41.55;94655.44;5095731;28;20525;-19
2023/03/18 00:46:26;;;;;;;0.70;0.70;;;4.90;54.50;;;4.68;41.73;94659.66;5111845;28;20229;-20
2023/03/18 00:48:57;;;;;;;0.70;0.70;;;4.90;54.50;;;4.67;41.64;94647.63;5096025;28;20182;-18
2023/03/18 00:51:28;;;;;;;0.65;0.65;;;4.80;54.50;;;4.64;42.11;94651.38;5096027;28;20179;-19
2023/03/18 00:54:06;;;;;;;0.70;0.70;;;4.90;54.90;;;4.62;42.36;94646.31;5094729;28;20213;-20
2023/03/18 00:56:36;;;;;;;0.80;0.80;;;4.80;54.90;;;4.66;42.22;94646.81;5096164;28;20189;-20
2023/03/18 00:59:05;;;;;;;0.70;0.70;;;4.80;55.20;;;4.65;42.67;94639.97;5094644;28;20193;-19
2023/03/18 01:01:33;;;;;;;0.80;0.80;;;4.90;55.30;;;4.67;42.81;94638.03;5094462;28;20191;-20
2023/03/18 01:04:01;;;;;;;0.70;0.70;;;4.90;55.30;;;4.66;42.68;94633.81;5095463;28;20190;-18
2023/03/18 01:06:32;;;;;;;0.80;0.80;;;4.90;55.20;;;4.68;42.78;94639.69;5111583;28;20191;-19
2023/03/18 01:09:01;;;;;;;0.70;0.70;;;4.90;55.20;;;4.65;42.69;94632.19;5095438;28;20183;-20
2023/03/18 01:11:28;;;;;;;0.60;0.60;;;4.90;55.20;;;4.67;42.71;94619.06;5077780;28;20285;-19
2023/03/18 01:13:56;;;;;;;0.70;0.70;;;4.90;55.40;;;4.66;42.49;94628.63;5111076;28;20209;-21
2023/03/18 01:16:23;;;;;;;0.63;0.63;;;4.80;55.20;;;4.66;42.67;94626.03;5095847;28;20195;-19
2023/03/18 01:18:52;;;;;;;0.60;0.60;;;4.90;56.40;;;4.65;42.37;94622.63;5094301;28;20206;-21
2023/03/18 01:21:19;;;;;;;0.80;0.80;;;4.80;55.10;;;4.65;42.46;94629.59;5093654;28;20194;-19
2023/03/18 01:23:52;;;;;;;0.80;0.80;;;4.90;55.20;;;4.61;42.54;94631.72;5095047;28;20280;-19
2023/03/18 01:26:19;;;;;;;0.63;0.63;;;4.80;55.10;;;4.61;42.92;94631.72;5095358;28;20517;-19
2023/03/18 01:28:46;;;;;;;0.70;0.70;;;4.80;55.20;;;4.57;42.67;94627.81;5094142;28;20222;-19
2023/03/18 01:31:14;;;;;;;0.70;0.70;;;4.80;55.40;;;4.54;42.85;94624.72;5094334;28;20202;-19
2023/03/18 01:33:44;;;;;;;0.70;0.70;;;4.80;55.50;;;4.52;42.67;94629.25;5110953;28;20230;-19
2023/03/18 01:36:11;;;;;;;0.70;0.70;;;4.70;55.40;;;4.47;42.92;94624.56;5095319;28;20195;-19
2023/03/18 01:38:39;;;;;;;0.80;0.80;;;4.70;55.40;;;4.43;43.23;94621.50;5095014;28;20528;-19
2023/03/18 01:41:12;;;;;;;0.70;0.70;;;4.70;55.70;;;4.40;43.22;94621.00;5094095;28;20217;-19
2023/03/18 01:43:41;;;;;;;0.63;0.63;;;4.70;55.70;;;4.39;42.66;94632.34;5095019;28;20273;-18
2023/03/18 01:46:31;;;;;;;0.70;0.70;;;4.60;55.90;;;4.32;42.94;94626.97;5111052;28;20202;-18
2023/03/18 01:49:09;;;;;;;0.70;0.70;;;4.60;55.50;;;4.27;43.17;94629.25;5111072;28;20223;-19
2023/03/18 01:51:37;;;;;;;0.70;0.70;;;4.60;55.80;;;4.26;42.84;94632.81;5095267;28;20179;-19
2023/03/18 01:54:07;;;;;;;0.70;0.70;;;4.50;55.60;;;4.23;43.08;94633.13;5110615;28;20198;-19
2023/03/18 01:56:38;;;;;;;0.70;0.70;;;4.50;56.00;;;4.19;42.88;94632.63;5077258;28;20198;-18
2023/03/18 01:59:07;;;;;;;0.70;0.70;;;4.50;55.80;;;4.14;43.47;94629.72;5110948;28;20197;-18
2023/03/18 02:01:52;;;;;;;0.70;0.70;;;4.40;56.00;;;4.13;43.41;94643.66;5077501;28;20205;-21
2023/03/18 02:04:27;;;;;;;0.60;0.60;;;4.40;56.00;;;4.07;43.22;94641.69;5093870;28;20267;-18
2023/03/18 02:06:56;;;;;;;0.77;0.77;;;4.40;56.00;;;4.05;43.22;94647.03;5111137;28;20175;-19
2023/03/18 02:09:24;;;;;;;0.80;0.80;;;4.30;55.90;;;4.03;43.02;94645.56;5094224;28;20198;-18
2023/03/18 02:11:52;;;;;;;0.70;0.70;;;4.30;56.00;;;4.01;43.24;94651.72;5110867;28;20285;-20
2023/03/18 02:14:24;;;;;;;0.80;0.80;;;4.20;56.00;;;3.95;43.37;94648.94;5077473;28;20676;-31
2023/03/18 02:17:07;;;;;;;0.70;0.70;;;4.20;57.30;;;3.90;43.43;94659.81;5111101;28;20183;-21
2023/03/18 02:19:57;;;;;;;0.80;0.80;;;4.20;56.30;;;3.89;43.63;94663.34;5094539;28;20256;-18
2023/03/18 02:22:31;;;;;;;0.70;0.70;;;4.10;56.40;;;3.81;43.95;94663.34;5110750;28;20194;-18
2023/03/18 02:25:23;;;;;;;0.68;0.68;;;4.10;56.40;;;3.76;43.74;94661.22;5093663;28;20244;-18
2023/03/18 02:27:58;;;;;;;0.60;0.60;;;4.00;56.50;;;3.69;43.72;94668.00;5094787;28;20249;-18
2023/03/18 02:30:34;;;;;;;0.80;0.80;;;4.00;56.60;;;3.65;43.64;94664.91;5093931;28;20281;-18
2023/03/18 02:33:05;;;;;;;0.65;0.65;;;3.90;56.50;;;3.63;43.41;94673.81;5096569;28;20194;-18
2023/03/18 02:35:34;;;;;;;0.80;0.80;;;3.90;56.40;;;3.59;43.08;94670.69;5097332;28;20218;-18
2023/03/18 02:38:03;;;;;;;0.70;0.70;;;3.80;56.30;;;3.58;43.28;94689.03;5114484;28;20198;-17
2023/03/18 02:40:35;;;;;;;0.70;0.70;;;3.80;56.30;;;3.53;43.14;94685.09;5098209;28;20293;-18
2023/03/18 02:43:26;;;;;;;0.70;0.70;;;3.70;56.30;;;3.49;43.03;94688.13;5114316;28;20229;-17
2023/03/18 02:45:56;;;;;;;0.63;0.63;;;3.70;56.40;;;3.43;43.19;94689.59;5114173;28;20298;-18
2023/03/18 02:48:32;;;;;;;0.70;0.70;;;3.60;56.30;;;3.37;43.07;94690.19;5097034;28;20254;-17
2023/03/18 02:50:59;;;;;;;0.80;0.80;;;3.60;56.50;;;3.34;42.98;94701.69;5097231;28;20183;-18
2023/03/18 02:53:26;;;;;;;0.80;0.80;;;3.50;56.20;;;3.31;43.06;94693.41;5097066;28;20205;-18
2023/03/18 02:55:53;;;;;;;0.85;0.85;;;3.50;56.30;;;3.27;43.11;94694.66;5096981;28;20709;-17
2023/03/18 02:58:20;;;;;;;0.70;0.70;;;3.40;56.30;;;3.22;42.97;94700.28;5098113;28;20564;-19
2023/03/18 03:00:53;;;;;;;0.70;0.70;;;3.40;56.40;;;3.21;43.10;94703.88;5113908;28;20255;-18
2023/03/18 03:03:21;;;;;;;0.70;0.70;;;3.40;56.40;;;3.15;43.05;94697.50;5096769;28;20213;-18
2023/03/18 03:05:48;;;;;;;0.90;0.90;;;3.30;56.40;;;3.08;43.13;94696.47;5098256;28;20271;-17
2023/03/18 03:08:15;;;;;;;0.80;0.80;;;3.30;56.50;;;3.06;43.56;94702.78;5096680;28;20313;-18
2023/03/18 03:10:46;;;;;;;0.70;0.70;;;3.30;56.60;;;3.06;43.07;94708.75;5097956;27;20183;-18
2023/03/18 03:13:14;;;;;;;0.70;0.70;;;3.20;56.60;;;2.99;43.71;94711.16;5113703;28;20191;-18
2023/03/18 03:15:42;;;;;;;0.80;0.80;;;3.10;56.80;;;2.98;43.51;94716.47;5096557;28;20205;-18
2023/03/18 03:18:09;;;;;;;0.80;0.80;;;3.10;56.90;;;2.88;45.16;94714.78;5097511;28;20190;-18
2023/03/18 03:20:37;;;;;;;0.70;0.70;;;3.10;57.80;;;2.90;44.34;94719.00;5096479;28;20208;-18
2023/03/18 03:23:07;;;;;;;0.70;0.70;;;3.10;57.70;;;2.89;44.30;94710.41;5097446;28;20195;-18
2023/03/18 03:25:35;;;;;;;0.70;0.70;;;3.10;57.60;;;2.84;44.01;94707.44;5096399;28;20557;-18
2023/03/18 03:28:03;;;;;;;0.80;0.80;;;3.00;57.40;;;2.81;43.87;94705.97;5097418;28;20211;-18
2023/03/18 03:30:30;;;;;;;0.70;0.70;;;3.00;57.50;;;2.78;44.36;94706.25;5097251;28;20260;-19
2023/03/18 03:32:59;;;;;;;0.80;0.80;;;3.00;57.60;;;2.77;44.17;94709.84;5113109;28;20641;-18
2023/03/18 03:35:27;;;;;;;0.70;0.70;;;3.00;57.70;;;2.71;44.55;94708.66;5096583;28;20190;-18
2023/03/18 03:37:54;;;;;;;0.80;0.80;;;2.90;57.70;;;2.73;44.36;94711.06;5097712;28;20251;-18
2023/03/18 03:40:23;;;;;;;0.70;0.70;;;2.90;57.60;;;2.68;44.17;94713.31;5096101;28;20199;-18
2023/03/18 03:42:50;;;;;;;0.70;0.70;;;2.80;57.60;;;2.65;44.59;94711.00;5096913;28;20224;-18
2023/03/18 03:45:18;;;;;;;0.70;0.70;;;2.90;57.80;;;2.64;44.63;94717.97;5096430;28;20214;-18
2023/03/18 03:47:46;;;;;;;0.70;0.70;;;2.80;57.90;;;2.63;44.34;94718.13;5113124;28;20222;-18
2023/03/18 03:50:16;;;;;;;0.70;0.70;;;2.80;57.90;;;2.60;44.40;94721.81;5095908;28;20278;-18
2023/03/18 03:52:44;;;;;;;0.70;0.70;;;2.80;57.90;;;2.58;44.78;94728.09;5095773;28;20195;-18
2023/03/18 03:55:17;;;;;;;0.80;0.80;;;2.70;58.10;;;2.58;44.86;94718.56;5112598;28;20213;-18
2023/03/18 03:57:45;;;;;;;0.70;0.70;;;2.80;58.20;;;2.54;45.03;94728.38;5112857;28;20206;-18
2023/03/18 04:00:16;;;;;;;0.80;0.80;;;2.70;58.30;;;2.50;45.05;94719.31;5096955;28;20206;-18
2023/03/18 04:02:48;;;;;;;0.80;0.80;;;2.70;58.40;;;2.49;44.78;94722.00;5096674;28;20231;-17
2023/03/18 04:05:21;;;;;;;0.70;0.70;;;2.70;58.40;;;2.44;45.00;94719.06;5096908;28;20175;-18
2023/03/18 04:07:50;;;;;;;0.70;0.70;;;2.70;58.40;;;2.44;44.97;94717.31;5112502;28;20309;-18
2023/03/18 04:10:21;;;;;;;0.70;0.70;;;2.60;58.30;;;2.43;45.13;94720.84;5095882;28;20297;-18
2023/03/18 04:12:49;;;;;;;0.80;0.80;;;2.60;58.40;;;2.40;45.69;94719.38;5095782;28;20229;-18
2023/03/18 04:15:18;;;;;;;0.80;0.80;;;2.60;58.70;;;2.37;45.47;94718.84;5095375;28;20529;-18
2023/03/18 04:17:51;;;;;;;0.70;0.70;;;2.60;58.70;;;2.36;45.62;94712.03;5079117;28;20688;-18
2023/03/18 04:20:19;;;;;;;0.80;0.80;;;2.60;58.90;;;2.33;45.81;94712.31;5078692;28;20213;-18
2023/03/18 04:22:48;;;;;;;0.80;0.80;;;2.60;60.10;;;2.32;46.19;94714.09;5112285;28;20264;-18
2023/03/18 04:25:19;;;;;;;0.80;0.80;;;2.60;59.20;;;2.31;46.29;94706.50;5095050;28;20322;-18
2023/03/18 04:27:51;;;;;;;0.70;0.70;;;2.50;59.20;;;2.31;45.83;94709.88;5095352;28;20223;-18
2023/03/18 04:30:22;;;;;;;0.70;0.70;;;2.50;59.00;;;2.31;46.59;94709.06;5112174;28;20285;-18
2023/03/18 04:33:09;;;;;;;0.80;0.80;;;2.50;59.30;;;2.30;45.86;94717.78;5095921;27;20183;-18
2023/03/18 04:35:41;;;;;;;0.70;0.70;;;2.50;59.20;;;2.28;46.01;94711.94;5112560;28;20218;-18
2023/03/18 04:38:10;;;;;;;0.70;0.70;;;2.50;59.40;;;2.26;46.24;94714.69;5095290;28;20213;-18
2023/03/18 04:40:38;;;;;;;0.80;0.80;;;2.50;59.50;;;2.28;46.37;94717.91;5094963;28;20229;-18
2023/03/18 04:43:06;;;;;;;0.70;0.70;;;2.50;59.60;;;2.28;46.48;94719.69;5094758;28;20541;-18
2023/03/18 04:45:33;;;;;;;0.70;0.70;;;2.50;59.60;;;2.24;46.09;94709.63;5094839;28;20209;-18
2023/03/18 04:48:03;;;;;;;0.80;0.80;;;2.50;59.50;;;2.26;46.47;94713.84;5094749;28;20222;-18
2023/03/18 04:50:35;;;;;;;0.70;0.70;;;2.50;59.70;;;2.27;46.21;94711.13;5078983;28;20195;-18
2023/03/18 04:53:03;;;;;;;0.80;0.80;;;2.40;59.60;;;2.23;46.84;94709.78;5111893;28;20524;-18
2023/03/18 04:55:32;;;;;;;0.80;0.80;;;2.50;60.10;;;2.22;46.69;94710.72;5093684;28;20268;-18
2023/03/18 04:58:03;;;;;;;0.70;0.70;;;2.50;59.90;;;2.23;46.51;94720.97;5094696;28;20208;-18
2023/03/18 05:00:37;;;;;;;0.90;0.90;;;2.50;60.00;;;2.23;46.55;94723.56;5111588;28;20202;-18
2023/03/18 05:03:16;;;;;;;0.70;0.70;;;2.40;59.80;;;2.23;46.01;94733.06;5094917;28;20233;-18
2023/03/18 05:05:44;;;;;;;0.80;0.80;;;2.50;59.80;;;2.22;46.26;94739.19;5095542;28;20187;-18
2023/03/18 05:08:13;;;;;;;0.70;0.70;;;2.40;59.60;;;2.21;46.20;94740.16;5111616;28;20210;-18
2023/03/18 05:10:41;;;;;;;0.80;0.80;;;2.50;59.60;;;2.21;45.84;94742.75;5111435;28;20259;-18
2023/03/18 05:13:11;;;;;;;0.77;0.77;;;2.40;59.60;;;2.20;46.56;94741.13;5095022;28;20570;-18
2023/03/18 05:15:38;;;;;;;0.70;0.70;;;2.40;59.90;;;2.18;46.73;94741.25;5094887;28;20191;-17
2023/03/18 05:18:05;;;;;;;0.80;0.80;;;2.40;60.00;;;2.18;46.75;94740.47;5077914;28;20255;-18
2023/03/18 05:20:34;;;;;;;0.70;0.70;;;2.40;60.00;;;2.16;46.30;94740.59;5094868;28;20538;-18
2023/03/18 05:23:03;;;;;;;0.80;0.80;;;2.40;60.00;;;2.20;46.09;94752.28;5094266;28;20195;-18
2023/03/18 05:25:40;;;;;;;0.80;0.80;;;2.40;60.00;;;2.15;46.27;94744.16;5093929;28;20612;-18
2023/03/18 05:28:09;;;;;;;0.80;0.80;;;2.40;60.00;;;2.15;46.31;94751.91;5111487;28;20225;-18
2023/03/18 05:30:48;;;;;;;0.70;0.70;;;2.40;60.00;;;2.15;46.38;94749.31;5079397;28;20637;-18
2023/03/18 05:33:16;;;;;;;0.80;0.80;;;2.40;60.00;;;2.16;46.09;94757.88;5111442;28;20198;-17
2023/03/18 05:35:51;;;;;;;0.70;0.70;;;2.40;60.00;;;2.16;46.32;94760.47;5094215;28;20287;-18
2023/03/18 05:38:22;;;;;;;0.80;0.80;;;2.40;60.00;;;2.14;46.61;94760.63;5095410;28;20194;-18
2023/03/18 05:40:50;;;;;;;0.77;0.77;;;2.40;60.10;;;2.18;46.81;94756.78;5094158;28;20207;-18
2023/03/18 05:43:23;;;;;;;0.80;0.80;;;2.40;60.20;;;2.19;46.48;94762.78;5094297;28;20294;-18
2023/03/18 05:45:54;;;;;;;0.70;0.70;;;2.40;60.30;;;2.20;46.53;94767.81;5094318;28;20194;-18
2023/03/18 05:48:33;;;;;;;0.70;0.70;;;2.40;60.20;;;2.18;46.46;94759.38;5094737;28;20238;-21
2023/03/18 05:51:04;;;;;;;0.70;0.70;;;2.40;60.20;;;2.20;46.18;94767.81;5111139;28;20245;-19
2023/03/18 05:53:34;;;;;;;0.73;0.73;;;2.40;60.20;;;2.23;46.51;94772.72;5111217;28;20195;-18
2023/03/18 05:56:14;;;;;;;0.70;0.70;;;2.40;60.30;;;2.23;46.59;94761.53;5095049;28;20190;-19
2023/03/18 05:58:43;;;;;;;0.70;0.70;;;2.50;60.30;;;2.27;46.51;94760.31;5094175;28;20553;-20
2023/03/18 06:01:24;;;;;;;0.70;0.70;;;2.50;60.40;;;2.30;46.65;94759.19;5111093;28;20652;-19
2023/03/18 06:03:52;;;;;;;0.70;0.70;;;2.50;60.40;;;2.32;47.43;94763.28;5093707;28;20199;-19
2023/03/18 06:06:19;;;;;;;0.70;0.70;;;2.60;60.70;;;2.35;47.25;94762.97;5093896;28;20210;-20
2023/03/18 06:08:47;;;;;;;0.80;0.80;;;2.60;60.70;;;2.38;47.40;94765.28;5114625;28;20595;-19
2023/03/18 06:11:14;;;;;;;0.70;0.70;;;2.60;60.70;;;2.44;47.24;94765.66;5099185;28;20221;-18
2023/03/18 06:13:42;;;;;;;0.77;0.77;;;2.70;60.90;;;2.50;47.25;94760.72;5097834;28;20213;-19
2023/03/18 06:16:10;;;;;;;0.70;0.70;;;2.70;60.80;;;2.56;47.51;94767.91;5097919;28;20199;-18
2023/03/18 06:18:37;;;;;;;0.70;0.70;;;2.80;60.90;;;2.57;47.68;94758.34;5115622;28;20217;-18
2023/03/18 06:21:09;;;;;;;0.90;0.90;;;2.90;61.00;;;2.65;47.33;94762.78;5097853;28;20212;-18
2023/03/18 06:23:37;;;;;;;0.70;0.70;;;2.90;61.10;;;2.71;47.75;94768.22;5081543;28;20265;-18
2023/03/18 06:26:06;;;;;;;0.80;0.80;;;3.00;61.00;;;2.75;47.30;94763.53;5114675;28;20321;-19
2023/03/18 06:28:37;;;;;;;0.73;0.73;;;3.00;61.10;;;2.80;48.01;94757.94;5114799;28;20646;-21
2023/03/18 06:31:09;;;;;;;0.70;0.70;;;3.10;61.10;;;2.85;47.57;94768.66;5097919;28;20202;-20
2023/03/18 06:33:37;;;;;;;0.80;0.80;;;3.10;61.10;;;2.91;47.72;94770.66;5097582;28;20671;-20
2023/03/18 06:36:07;;;;;;;0.70;0.70;;;3.20;61.10;;;2.94;47.32;94767.78;5097580;28;20195;-20
2023/03/18 06:38:34;;;;;;;0.70;0.70;;;3.20;61.30;;;3.01;47.40;94768.00;5099092;28;20572;-19
2023/03/18 06:41:01;;;;;;;0.70;0.70;;;3.30;61.10;;;3.05;47.51;94769.31;5097290;28;20260;-19
2023/03/18 06:43:34;;;;;;;0.70;0.70;;;3.30;61.20;;;3.13;47.61;94771.97;5097224;28;20642;-20
2023/03/18 06:46:06;;;;;;;0.70;0.70;;;3.40;61.20;;;3.19;47.46;94771.38;5098354;28;20553;-19
2023/03/18 06:48:34;;;;;;;0.65;0.65;;;3.50;61.30;;;3.29;47.85;94773.09;5113858;28;20215;-19
2023/03/18 06:51:02;;;;;;;0.60;0.60;;;3.60;61.30;;;3.35;47.63;94764.69;5097107;28;20222;-20
2023/03/18 06:53:35;;;;;;;0.60;0.60;;;3.70;61.30;;;3.43;47.95;94769.94;5097680;28;20578;-21
2023/03/18 06:56:04;;;;;;;0.80;0.80;;;3.70;61.40;;;3.52;47.65;94771.63;5096874;28;20538;-19
2023/03/18 06:58:42;;;;;;;0.80;0.80;;;3.80;61.60;;;3.65;48.33;94780.78;5081796;28;20301;-19
2023/03/18 07:01:11;;;;;;;0.70;0.70;;;3.90;61.60;;;3.73;48.04;94767.88;5096952;28;20210;-19
2023/03/18 07:03:41;;;;;;;0.80;0.80;;;4.00;61.50;;;3.88;47.64;94775.09;5096958;28;20206;-21
2023/03/18 07:06:12;;;;;;;0.70;0.70;;;4.20;61.60;;;4.00;48.07;94776.44;5096835;28;20280;-19
2023/03/18 07:08:40;;;;;;;0.70;0.70;;;4.30;61.40;;;4.16;47.48;94775.72;5096655;28;20650;-18
2023/03/18 07:11:07;;;;;;;0.70;0.70;;;4.50;61.50;;;4.28;47.52;94781.44;5096749;28;20195;-20
2023/03/18 07:13:38;;;;;;;0.70;0.70;;;4.60;61.50;;;4.41;47.41;94776.63;5114184;28;20229;-18
2023/03/18 07:16:11;;;;;;;0.70;0.70;;;4.70;61.30;;;4.58;46.93;94782.69;5096625;28;20425;-20
2023/03/18 07:18:39;;;;;;;0.70;0.70;;;4.90;61.20;;;4.71;46.86;94787.44;5097289;28;20207;-20
2023/03/18 07:21:06;;;;;;;0.70;0.70;;;5.00;61.10;;;4.83;46.57;94781.94;5097770;28;20186;-20
2023/03/18 07:23:33;;;;;;;0.70;0.70;;;5.20;61.00;;;4.95;46.06;94797.06;5097859;28;20191;-20
2023/03/18 07:26:00;;;;;;;0.68;0.68;;;5.30;60.70;;;5.10;45.97;94788.63;5113833;28;20238;-24
2023/03/18 07:28:27;;;;;;;0.70;0.70;;;5.50;60.70;;;5.23;45.70;94791.56;5096699;28;20279;-19
2023/03/18 07:30:55;;;;;;;0.80;0.80;;;5.60;60.50;;;5.36;45.69;94796.31;5097347;28;20207;-21
2023/03/18 07:33:23;;;;;;;0.65;0.65;;;5.70;60.30;;;5.47;45.50;94795.16;5096716;28;20202;-19
2023/03/18 07:35:50;;;;;;;0.65;0.65;;;5.80;60.20;;;5.57;45.57;94795.81;5113308;28;20529;-19
2023/03/18 07:38:17;;;;;;;0.60;0.60;;;6.00;60.30;;;5.70;45.34;94797.09;5097721;28;20222;-21
2023/03/18 07:40:45;;;;;;;0.80;0.80;;;6.10;60.10;;;5.85;45.30;94798.06;5113932;28;20252;-31
2023/03/18 07:43:12;;;;;;;0.70;0.70;;;6.20;60.10;;;5.97;44.87;94806.34;5097355;28;20665;-19
2023/03/18 07:45:39;;;;;;;0.70;0.70;;;6.40;60.00;;;6.09;44.64;94799.00;5097140;28;20210;-19
2023/03/18 07:48:06;;;;;;;0.70;0.70;;;6.50;60.00;;;6.19;44.19;94806.63;5097065;28;20186;-18
2023/03/18 07:50:33;;;;;;;0.60;0.60;;;6.60;59.30;;;6.30;43.84;94802.84;5096942;28;20220;-19
2023/03/18 07:53:01;;;;;;;0.70;0.70;;;6.80;59.10;;;6.35;43.63;94811.00;5097036;28;20248;-17
2023/03/18 07:55:28;;;;;;;0.70;0.70;;;6.80;58.80;;;6.43;43.61;94810.94;5096128;28;20183;-19
2023/03/18 07:57:55;;;;;;;0.60;0.60;;;6.90;58.80;;;6.52;43.42;94819.56;5097087;28;20626;-20
2023/03/18 08:00:24;;;;;;;0.60;0.60;;;7.00;58.60;;;6.55;43.39;94811.41;5097066;28;20206;-19
2023/03/18 08:02:51;;;;;;;0.73;0.73;;;7.10;58.50;;;6.67;43.31;94819.66;5112823;28;20610;-20
2023/03/18 08:05:18;;;;;;;0.60;0.60;;;7.10;58.30;;;6.74;43.31;94815.41;5112798;28;20278;-19
2023/03/18 08:07:45;;;;;;;0.70;0.70;;;7.20;58.30;;;6.84;42.99;94826.41;5096729;28;20206;-21
2023/03/18 08:10:13;;;;;;;0.70;0.70;;;7.30;58.00;;;6.93;42.95;94818.56;5096673;28;20670;-19
2023/03/18 08:12:41;;;;;;;0.70;0.70;;;7.40;57.90;;;7.00;42.94;94817.69;5096613;28;20668;-17
2023/03/18 08:15:21;;;;;;;0.63;0.63;;;7.50;58.00;;;7.11;42.68;94826.94;5096346;28;20182;-18
2023/03/18 08:17:49;;;;;;;0.60;0.60;;;7.60;57.80;;;7.21;42.53;94829.31;5096604;28;20244;-18
2023/03/18 08:20:16;;;;;;;0.70;0.70;;;7.70;57.80;;;7.33;42.96;94827.13;5096476;28;20222;-19
2023/03/18 08:22:44;;;;;;;0.82;0.82;;;7.80;57.90;;;7.45;42.50;94833.56;5096665;28;20271;-18
2023/03/18 08:25:13;;;;;;;0.60;0.60;;;7.90;57.70;;;7.57;42.17;94828.75;5096517;28;20309;-19
2023/03/18 08:27:40;;;;;;;0.70;0.70;;;8.10;57.60;;;7.71;42.27;94823.75;5096478;28;20198;-18
2023/03/18 08:30:09;;;;;;;0.60;0.60;;;8.20;57.70;;;7.86;42.54;94827.22;5096187;28;20221;-20
2023/03/18 08:32:37;;;;;;;0.70;0.70;;;8.30;57.60;;;7.99;42.46;94831.81;5095409;28;20186;-25
2023/03/18 08:35:05;;;;;;;0.70;0.70;;;8.50;57.50;;;8.13;41.82;94827.59;5094739;28;20187;-18
2023/03/18 08:37:32;;;;;;;0.70;0.70;;;8.60;57.20;;;8.28;41.95;94822.41;5096291;28;20194;-18
2023/03/18 08:40:00;;;;;;;0.55;0.55;;;8.80;57.20;;;8.45;41.55;94830.88;5094955;28;20301;-19
2023/03/18 08:42:27;;;;;;;0.63;0.63;;;8.90;56.70;;;8.56;41.35;94829.66;5096025;28;20213;-19
2023/03/18 08:44:55;;;;;;;0.70;0.70;;;9.10;56.60;;;8.71;41.33;94825.19;5096122;28;20199;-19
2023/03/18 08:47:24;;;;;;;0.60;0.60;;;9.20;56.50;;;8.85;41.30;94831.41;5094834;28;20588;-18
2023/03/18 08:49:51;;;;;;;0.60;0.60;;;9.30;56.50;;;8.94;40.86;94827.69;5095754;28;20302;-19
2023/03/18 08:52:18;;;;;;;0.60;0.60;;;9.50;56.20;;;9.06;40.60;94828.03;5095860;28;20190;-19
2023/03/18 08:54:45;;;;;;;0.60;0.60;;;9.60;55.80;;;9.20;40.53;94836.03;5100258;28;20199;-19
2023/03/18 08:57:12;;;;;;;0.60;0.60;;;9.70;55.60;;;9.29;40.22;94829.69;5101155;28;20251;-18
2023/03/18 08:59:39;;;;;;;0.70;0.70;;;9.80;55.70;;;9.37;39.88;94823.53;5095620;27;20198;-21
2023/03/18 09:02:09;;;;;;;0.70;0.70;;;10.00;54.10;;;9.45;39.35;94826.03;5097999;28;20201;-18
2023/03/18 09:04:37;;;;;;;0.60;0.60;;;10.00;53.50;;;9.56;39.45;94830.75;5095347;28;20239;-22
2023/03/18 09:07:04;;;;;;;0.60;0.60;;;10.10;53.30;;;9.63;39.25;94843.09;5101281;28;20195;-20
2023/03/18 09:09:31;;;;;;;0.60;0.60;;;10.20;53.10;;;9.65;38.66;94839.28;5095376;28;20653;-19
2023/03/18 09:12:12;;;;;;;0.50;0.50;;;10.20;52.50;;;9.66;38.95;94837.50;5096055;28;20181;-19
2023/03/18 09:14:42;;;;;;;0.60;0.60;;;10.30;52.80;;;9.70;39.00;94836.13;5096460;28;20499;-20
2023/03/18 09:17:10;;;;;;;0.60;0.60;;;10.30;52.80;;;9.75;38.96;94831.13;5095654;28;20231;-20
2023/03/18 09:19:37;;;;;;;0.73;0.73;;;10.40;52.60;;;9.81;38.89;94832.19;5095834;28;20194;-19
2023/03/18 09:22:04;;;;;;;0.80;0.80;;;10.40;52.70;;;9.83;39.18;94836.22;5094621;28;20201;-22
2023/03/18 09:24:31;;;;;;;0.70;0.70;;;10.40;52.70;;;9.92;39.26;94836.91;5094357;28;20233;-20
2023/03/18 09:26:58;;;;;;;0.60;0.60;;;10.50;52.70;;;10.01;39.01;94830.53;5094371;28;20198;-20
2023/03/18 09:29:26;;;;;;;0.60;0.60;;;10.50;52.80;;;10.12;38.28;94831.81;5095253;28;20661;-19
2023/03/18 09:31:54;;;;;;;0.60;0.60;;;10.60;52.40;;;10.22;38.29;94832.28;5095706;28;20202;-21
2023/03/18 09:34:22;;;;;;;0.50;0.50;;;10.70;52.10;;;10.33;38.43;94836.19;5077680;28;20273;-19
2023/03/18 09:36:52;;;;;;;0.60;0.60;;;10.80;52.30;;;10.47;38.30;94834.47;5077780;28;20202;-19
2023/03/18 09:39:20;;;;;;;0.80;0.80;;;10.90;52.10;;;10.57;38.02;94834.94;5094910;28;20186;-19
2023/03/18 09:42:35;;;;;;;0.60;0.60;;;11.10;52.20;;;10.75;38.56;94830.19;5094847;28;20194;-20
2023/03/18 09:45:55;;;;;;;0.60;0.60;;;11.20;52.30;;;10.95;38.73;94827.66;5095895;28;20271;-18
2023/03/18 09:49:10;;;;;;;0.70;0.70;;;11.40;52.80;;;11.12;38.18;94831.56;5111457;28;20202;-19
2023/03/18 09:51:58;;;;;;;0.60;0.60;;;11.50;52.30;;;11.29;38.03;94833.81;5095544;28;20265;-20
2023/03/18 09:54:38;;;;;;;0.60;0.60;;;11.70;52.00;;;11.42;37.89;94833.06;5094834;28;20606;-19
2023/03/18 09:57:12;;;;;;;0.60;0.60;;;11.90;52.00;;;11.51;37.72;94830.03;5094541;28;20178;-19
2023/03/18 09:59:54;;;;;;;0.60;0.60;;;12.00;51.70;;;11.61;37.37;94837.53;5094569;28;20177;-19
2023/03/18 10:02:41;;;;;;;0.60;0.60;;;12.10;51.50;;;11.66;37.20;94826.44;5094322;28;20178;-19
2023/03/18 10:05:28;;;;;;;0.60;0.60;;;12.20;52.50;;;11.71;36.95;94836.34;5095112;28;20193;-19
2023/03/18 10:08:03;;;;;;;0.60;0.60;;;12.20;50.80;;;11.75;37.09;94837.56;5094558;28;20258;-19
2023/03/18 10:10:37;;;;;;;0.70;0.70;;;12.30;52.00;;;11.75;36.96;94827.84;5094163;28;20616;-19
2023/03/18 10:13:33;;;;;;;0.70;0.70;;;12.30;50.80;;;11.74;36.70;94822.78;5094201;28;20186;-19
2023/03/18 10:16:03;;;;;;;0.60;0.60;;;12.30;50.40;;;11.75;36.57;94830.47;5094705;28;20572;-19
2023/03/18 10:18:33;;;;;;;0.60;0.60;;;12.30;50.20;;;11.73;36.40;94834.31;5095016;28;20262;-19
2023/03/18 10:21:24;;;;;;;0.60;0.60;;;12.30;50.20;;;11.69;37.12;94829.47;5093828;28;20194;-19
2023/03/18 10:24:08;;;;;;;0.63;0.63;;;12.20;50.70;;;11.71;37.14;94836.34;5094204;28;20170;-19
2023/03/18 10:27:15;;;;;;;0.60;0.60;;;12.20;50.70;;;11.76;37.47;94834.72;5095111;28;20182;-19
2023/03/18 10:29:52;;;;;;;0.63;0.63;;;12.20;51.10;;;11.80;36.83;94828.06;5071779;28;20313;-19
2023/03/18 10:32:42;;;;;;;0.63;0.63;;;12.30;50.60;;;11.85;36.76;94830.06;5095408;28;20174;-19
2023/03/18 10:35:37;;;;;;;0.70;0.70;;;12.30;50.60;;;11.92;36.72;94824.81;5086373;28;20199;-19
2023/03/18 10:38:21;;;;;;;0.57;0.57;;;12.40;50.60;;;12.01;36.59;94826.25;5094547;28;20251;-19
2023/03/18 10:40:49;;;;;;;0.60;0.60;;;12.40;50.40;;;12.07;37.01;94816.75;5093937;28;20183;-19
2023/03/18 10:43:20;;;;;;;0.60;0.60;;;12.50;50.90;;;12.19;37.05;94822.22;5094630;28;20568;-19
2023/03/18 10:45:57;;;;;;;0.50;0.50;;;12.60;51.00;;;12.30;36.79;94821.59;5094053;28;20568;-19
2023/03/18 10:48:34;;;;;;;0.60;0.60;;;12.70;50.70;;;12.43;36.62;94823.41;5094997;28;20181;-19